Time;durP1;ratioP1;P1;durP2;ratioP2;P2;SDS_P1;SDS_P2;PMS_P1;PMS_P2;Temp;Humidity;BMP_temperature;BMP_pressure;BME280_temperature;BME280_humidity;BME280_pressure;Samples;Min_cycle;Max_cycle;Signal;HPM_P1;HPM_P2
2023/08/26 00:00:36;;;;;;;143.95;117.32;;;26.70;99.90;;;;;;5097160;28;20036;-69
2023/08/26 00:03:03;;;;;;;108.03;85.43;;;26.70;99.90;;;;;;5096853;28;20016;-68
2023/08/26 00:05:29;;;;;;;73.50;60.80;;;26.80;99.90;;;;;;5096715;28;20020;-69
2023/08/26 00:07:56;;;;;;;75.30;67.90;;;26.80;99.90;;;;;;5096900;28;20503;-71
2023/08/26 00:10:22;;;;;;;82.30;73.50;;;26.80;99.90;;;;;;5096658;28;20039;-68
2023/08/26 00:12:49;;;;;;;70.18;62.70;;;26.80;99.90;;;;;;5096619;28;20034;-69
2023/08/26 00:15:16;;;;;;;64.65;56.95;;;26.90;99.90;;;;;;5096737;28;20047;-68
2023/08/26 00:17:42;;;;;;;78.85;70.80;;;26.90;99.90;;;;;;5088397;28;20031;-68
2023/08/26 00:20:09;;;;;;;67.32;60.20;;;26.90;99.90;;;;;;5087777;28;20091;-68
2023/08/26 00:22:38;;;;;;;67.43;60.63;;;27.00;99.90;;;;;;5096528;28;20163;-68
2023/08/26 00:25:06;;;;;;;81.22;66.75;;;27.00;99.90;;;;;;5096640;28;20031;-68
2023/08/26 00:27:32;;;;;;;69.28;53.40;;;27.00;99.90;;;;;;5084863;28;20039;-69
2023/08/26 00:29:59;;;;;;;76.93;67.57;;;27.10;99.90;;;;;;5076036;28;20056;-68
2023/08/26 00:32:25;;;;;;;85.38;73.53;;;27.10;99.90;;;;;;5076100;28;20073;-68
2023/08/26 00:34:52;;;;;;;77.32;61.42;;;27.10;99.90;;;;;;5075995;28;20029;-69
2023/08/26 00:37:18;;;;;;;90.20;80.70;;;27.10;99.90;;;;;;5085679;28;20093;-68
2023/08/26 00:39:45;;;;;;;81.75;72.70;;;27.10;99.90;;;;;;5093692;28;20024;-69
2023/08/26 00:42:11;;;;;;;94.10;66.47;;;27.20;99.90;;;;;;5092920;28;20104;-68
2023/08/26 00:44:38;;;;;;;112.70;100.53;;;27.20;99.90;;;;;;5086492;28;20023;-69
2023/08/26 00:47:05;;;;;;;100.32;88.15;;;27.30;99.90;;;;;;5096119;28;20143;-68
2023/08/26 00:49:32;;;;;;;103.75;92.93;;;27.20;99.90;;;;;;5095928;28;20477;-69
2023/08/26 00:51:59;;;;;;;92.22;70.47;;;27.30;99.90;;;;;;5095777;28;20432;-68
2023/08/26 00:54:27;;;;;;;115.72;98.63;;;27.50;99.90;;;;;;5095918;28;20024;-69
2023/08/26 00:56:55;;;;;;;126.47;113.03;;;27.50;99.90;;;;;;5077758;28;20358;-69
2023/08/26 00:59:21;;;;;;;106.82;91.35;;;27.60;99.90;;;;;;5096041;28;20024;-68
2023/08/26 01:01:49;;;;;;;108.38;95.38;;;27.50;99.90;;;;;;5095793;28;20024;-68
2023/08/26 01:04:16;;;;;;;101.25;89.50;;;27.60;99.90;;;;;;5095831;28;20039;-68
2023/08/26 01:06:42;;;;;;;116.60;96.50;;;27.70;99.90;;;;;;5095542;28;20025;-68
2023/08/26 01:09:09;;;;;;;97.97;85.80;;;27.70;99.90;;;;;;5095640;28;20558;-68
2023/08/26 01:11:55;;;;;;;103.15;81.57;;;27.80;99.90;;;;;;5095380;28;20028;-69
2023/08/26 01:14:26;;;;;;;86.70;74.72;;;27.90;99.90;;;;;;5095535;28;20023;-68
2023/08/26 01:16:53;;;;;;;83.25;71.65;;;27.90;99.90;;;;;;5085259;28;20497;-68
2023/08/26 01:30:52;;;;;;;185.00;144.90;;;27.90;99.90;;;;;;5091253;28;20455;-69
2023/08/26 01:33:26;;;;;;;116.65;103.22;;;27.90;99.90;;;;;;5091062;28;20029;-69
2023/08/26 01:35:59;;;;;;;82.50;72.68;;;28.00;99.90;;;;;;5084367;28;20082;-71
2023/08/26 01:38:28;;;;;;;76.47;68.95;;;28.20;99.90;;;;;;5091043;28;20024;-71
2023/08/26 01:46:38;;;;;;;72.40;59.90;;;28.50;99.90;;;;;;5091217;27;20449;-71
2023/08/26 01:49:05;;;;;;;94.55;85.32;;;28.60;99.90;;;;;;5091031;28;20039;-68
2023/08/26 01:51:32;;;;;;;86.40;76.85;;;28.60;99.90;;;;;;5091159;28;20031;-68
2023/08/26 01:53:59;;;;;;;119.47;87.47;;;28.60;99.90;;;;;;5091071;28;20024;-69
2023/08/26 01:56:25;;;;;;;70.57;58.53;;;28.70;99.90;;;;;;5091036;28;20046;-68
2023/08/26 01:58:52;;;;;;;62.58;55.95;;;28.70;99.90;;;;;;5090657;28;20017;-68
2023/08/26 02:01:19;;;;;;;67.20;59.67;;;28.80;99.90;;;;;;5090936;28;20028;-67
2023/08/26 02:03:45;;;;;;;105.18;77.22;;;28.80;99.90;;;;;;5090479;28;20388;-68
2023/08/26 02:06:12;;;;;;;117.43;97.70;;;28.90;99.90;;;;;;5090689;28;20029;-68
2023/08/26 02:08:38;;;;;;;143.10;105.38;;;29.00;99.90;;;;;;5090978;28;20390;-68
2023/08/26 02:11:05;;;;;;;68.13;51.20;;;29.00;99.90;;;;;;5090500;28;20032;-68
2023/08/26 02:13:31;;;;;;;51.88;42.72;;;29.10;99.90;;;;;;5089747;28;20020;-66
2023/08/26 02:15:58;;;;;;;66.75;55.70;;;29.20;99.90;;;;;;5079872;28;20260;-67
2023/08/26 02:18:25;;;;;;;57.08;48.78;;;29.30;99.90;;;;;;5069949;28;20104;-68
2023/08/26 02:20:51;;;;;;;47.70;42.47;;;29.30;99.90;;;;;;5070053;28;20110;-67
2023/08/26 02:23:18;;;;;;;44.67;36.13;;;29.40;99.90;;;;;;5070156;28;20067;-68
2023/08/26 02:25:44;;;;;;;67.03;59.50;;;29.40;99.90;;;;;;5070029;28;20086;-68
2023/08/26 02:28:11;;;;;;;86.30;70.90;;;29.50;99.90;;;;;;5087032;28;20477;-68
2023/08/26 02:30:38;;;;;;;57.25;49.97;;;29.50;99.90;;;;;;5090246;28;20025;-69
2023/08/26 02:33:06;;;;;;;47.22;36.83;;;29.60;99.90;;;;;;5090070;28;20024;-68
2023/08/26 02:35:34;;;;;;;44.35;39.65;;;29.70;99.90;;;;;;5082434;28;20099;-69
2023/08/26 02:38:01;;;;;;;45.40;39.97;;;29.70;99.90;;;;;;5069610;28;20076;-67
2023/08/26 02:40:27;;;;;;;44.45;38.38;;;29.70;99.90;;;;;;5069545;28;20371;-69
2023/08/26 02:42:54;;;;;;;59.40;53.80;;;29.80;99.90;;;;;;5069585;28;20025;-69
2023/08/26 02:45:20;;;;;;;47.60;41.35;;;29.90;99.90;;;;;;5074521;28;20045;-68
2023/08/26 02:47:47;;;;;;;52.55;47.50;;;29.90;99.90;;;;;;5079714;28;20059;-69
2023/08/26 02:50:14;;;;;;;58.40;53.13;;;30.10;99.90;;;;;;5084130;28;20046;-69
2023/08/26 02:52:40;;;;;;;48.78;43.65;;;30.20;99.90;;;;;;5088732;28;20032;-69
2023/08/26 02:55:09;;;;;;;35.30;30.20;;;30.20;99.90;;;;;;5079262;28;20025;-70
2023/08/26 02:57:35;;;;;;;38.45;34.65;;;30.10;99.90;;;;;;5068740;28;20181;-69
2023/08/26 03:00:04;;;;;;;29.27;26.15;;;30.10;99.90;;;;;;5074742;28;20496;-69
2023/08/26 03:02:31;;;;;;;56.22;50.95;;;30.20;99.90;;;;;;5063320;28;20029;-68
2023/08/26 03:04:57;;;;;;;32.50;26.92;;;30.30;99.90;;;;;;5076001;28;20488;-69
2023/08/26 03:07:24;;;;;;;38.70;34.85;;;30.40;99.90;;;;;;5075798;28;20027;-69
2023/08/26 03:09:50;;;;;;;42.45;34.38;;;30.50;99.90;;;;;;5075844;28;20024;-69
2023/08/26 03:12:17;;;;;;;45.17;40.58;;;30.50;99.90;;;;;;5075802;28;20410;-69
2023/08/26 03:14:43;;;;;;;51.67;46.92;;;30.50;99.90;;;;;;5075733;28;20044;-70
2023/08/26 03:17:10;;;;;;;47.63;43.15;;;30.60;99.90;;;;;;5075738;28;20095;-69
2023/08/26 03:19:37;;;;;;;55.45;49.67;;;30.50;99.90;;;;;;5075677;28;20016;-68
2023/08/26 03:22:04;;;;;;;57.20;52.10;;;30.70;99.90;;;;;;5075538;28;20024;-68
2023/08/26 03:24:34;;;;;;;43.65;39.13;;;30.70;99.90;;;;;;5075693;28;20115;-69
2023/08/26 03:27:00;;;;;;;56.05;50.28;;;30.70;99.90;;;;;;5075591;28;20016;-69
2023/08/26 03:29:27;;;;;;;64.00;58.03;;;30.70;99.90;;;;;;5075447;28;20023;-68
2023/08/26 03:31:53;;;;;;;53.50;48.33;;;30.80;99.90;;;;;;5075508;28;20103;-68
2023/08/26 03:34:20;;;;;;;50.75;45.05;;;30.80;99.90;;;;;;5075436;28;20031;-70
2023/08/26 03:36:47;;;;;;;59.55;53.30;;;30.90;99.90;;;;;;5045982;23;20054;-68
2023/08/26 03:39:13;;;;;;;63.20;57.25;;;30.80;99.90;;;;;;5001291;28;20471;-69
2023/08/26 03:41:40;;;;;;;74.72;66.90;;;30.80;99.90;;;;;;5015610;28;20041;-69
2023/08/26 03:44:06;;;;;;;122.60;92.82;;;30.90;99.90;;;;;;5015477;28;20148;-71
2023/08/26 03:46:33;;;;;;;52.33;41.78;;;31.00;99.90;;;;;;5015488;28;20029;-68
2023/08/26 03:48:59;;;;;;;54.95;49.47;;;31.00;99.90;;;;;;5015325;28;20030;-68
2023/08/26 03:51:26;;;;;;;68.95;62.38;;;31.10;99.90;;;;;;5015180;28;20029;-69
2023/08/26 03:53:52;;;;;;;54.17;46.25;;;31.00;99.90;;;;;;5015578;28;20026;-66
2023/08/26 03:56:19;;;;;;;59.55;53.10;;;31.00;99.90;;;;;;5015244;28;20129;-66
2023/08/26 03:58:46;;;;;;;67.10;60.47;;;31.00;99.90;;;;;;5009136;28;20026;-66
2023/08/26 04:01:12;;;;;;;50.10;42.53;;;31.20;99.90;;;;;;4998337;28;20033;-67
2023/08/26 04:03:39;;;;;;;126.15;95.55;;;31.30;99.90;;;;;;4996011;28;20044;-67
2023/08/26 04:06:05;;;;;;;163.90;139.60;;;31.40;99.90;;;;;;4995800;28;20026;-66
2023/08/26 04:08:33;;;;;;;110.00;97.72;;;31.50;99.90;;;;;;4994738;28;20534;-67
2023/08/26 04:11:00;;;;;;;82.72;74.57;;;31.50;99.90;;;;;;5051871;22;20059;-66
2023/08/26 04:13:29;;;;;;;67.50;60.90;;;31.50;99.90;;;;;;5044201;28;20025;-67
2023/08/26 04:15:56;;;;;;;66.93;60.42;;;31.50;99.90;;;;;;5050413;28;20040;-69
2023/08/26 04:18:23;;;;;;;54.20;47.88;;;31.50;99.90;;;;;;5034355;28;20378;-69
2023/08/26 04:20:52;;;;;;;72.80;65.82;;;31.40;99.90;;;;;;5028624;28;20025;-68
2023/08/26 04:23:22;;;;;;;72.72;66.07;;;31.40;99.90;;;;;;5029296;28;20504;-68
2023/08/26 04:25:50;;;;;;;58.53;52.30;;;31.40;99.90;;;;;;5023698;28;20097;-69
2023/08/26 04:28:16;;;;;;;75.28;67.88;;;31.40;99.90;;;;;;5005460;28;20432;-69
2023/08/26 04:30:44;;;;;;;56.17;49.50;;;31.30;99.90;;;;;;5024378;28;20020;-69
2023/08/26 04:33:11;;;;;;;68.15;61.05;;;31.30;99.90;;;;;;5025597;28;20014;-68
2023/08/26 04:35:37;;;;;;;84.00;75.38;;;31.30;99.90;;;;;;5029433;28;20060;-68
2023/08/26 04:38:04;;;;;;;56.75;50.55;;;31.30;99.90;;;;;;5018484;28;20029;-69
2023/08/26 04:40:31;;;;;;;63.95;57.40;;;31.30;99.90;;;;;;5017037;28;20434;-68
2023/08/26 04:42:58;;;;;;;60.50;53.88;;;31.30;99.90;;;;;;5016947;28;20022;-68
2023/08/26 04:45:24;;;;;;;63.00;56.10;;;31.30;99.90;;;;;;5016979;28;20410;-68
2023/08/26 04:47:51;;;;;;;67.18;60.92;;;31.30;99.90;;;;;;5016984;28;20018;-67
2023/08/26 04:50:18;;;;;;;65.82;59.47;;;31.40;99.90;;;;;;5017021;28;20064;-68
2023/08/26 04:52:44;;;;;;;74.28;66.53;;;31.50;99.90;;;;;;5020976;28;20017;-69
2023/08/26 04:55:11;;;;;;;67.97;59.95;;;31.80;99.90;;;;;;5016834;28;20017;-68
2023/08/26 04:57:38;;;;;;;96.03;86.45;;;31.90;99.90;;;;;;5018083;28;20021;-68
2023/08/26 05:00:10;;;;;;;65.82;58.67;;;32.00;99.90;;;;;;5027273;28;20084;-69
2023/08/26 05:02:38;;;;;;;61.35;55.15;;;32.10;99.90;;;;;;5023969;28;20032;-69
2023/08/26 05:05:05;;;;;;;72.07;65.25;;;32.20;99.90;;;;;;5023580;28;20029;-66
2023/08/26 05:07:32;;;;;;;63.30;56.70;;;32.20;99.90;;;;;;5019670;28;20030;-69
2023/08/26 05:09:59;;;;;;;75.07;67.55;;;32.30;99.90;;;;;;5024428;28;20057;-67
2023/08/26 05:12:26;;;;;;;55.08;49.78;;;32.30;99.90;;;;;;5024886;28;20024;-67
2023/08/26 05:14:52;;;;;;;63.03;56.53;;;32.30;99.90;;;;;;5022421;28;20486;-68
2023/08/26 05:17:19;;;;;;;64.72;58.40;;;32.40;99.90;;;;;;5024271;28;20060;-68
2023/08/26 05:19:46;;;;;;;61.03;54.33;;;32.50;99.90;;;;;;5024524;28;20067;-68
2023/08/26 05:22:13;;;;;;;51.88;46.58;;;32.60;99.90;;;;;;5024930;28;20017;-68
2023/08/26 05:24:39;;;;;;;74.53;67.82;;;32.70;99.90;;;;;;5022535;28;20022;-66
2023/08/26 05:27:06;;;;;;;71.43;64.75;;;32.80;99.90;;;;;;5024389;28;20026;-68
2023/08/26 05:29:33;;;;;;;54.20;49.17;;;32.80;99.90;;;;;;5022574;28;20028;-69
2023/08/26 05:32:00;;;;;;;52.22;46.60;;;32.80;99.90;;;;;;5023988;28;20025;-69
2023/08/26 05:34:26;;;;;;;60.58;54.78;;;32.80;99.90;;;;;;5023845;28;20475;-69
2023/08/26 05:36:53;;;;;;;64.32;58.17;;;33.00;99.90;;;;;;5023704;28;20045;-69
2023/08/26 05:39:20;;;;;;;85.65;78.05;;;32.90;99.90;;;;;;5025122;28;20064;-68
2023/08/26 05:41:46;;;;;;;83.53;75.90;;;32.90;99.90;;;;;;5023294;28;20022;-68
2023/08/26 05:44:13;;;;;;;66.88;60.90;;;32.90;99.90;;;;;;5023470;28;20059;-67
2023/08/26 05:46:39;;;;;;;63.85;57.55;;;32.90;99.90;;;;;;5024791;28;20029;-67
2023/08/26 05:49:06;;;;;;;60.97;55.53;;;32.90;99.90;;;;;;5022839;28;20029;-67
2023/08/26 05:51:32;;;;;;;75.55;68.95;;;32.80;99.90;;;;;;5023445;28;20044;-68
2023/08/26 05:53:59;;;;;;;73.22;66.43;;;32.80;99.90;;;;;;5024078;28;20039;-67
2023/08/26 05:56:25;;;;;;;85.70;78.28;;;32.70;99.90;;;;;;5024911;28;20493;-70
2023/08/26 05:58:52;;;;;;;78.18;71.10;;;32.80;99.90;;;;;;5023644;28;20053;-69
2023/08/26 06:01:18;;;;;;;60.45;54.25;;;32.70;99.90;;;;;;5028118;28;20025;-67
2023/08/26 06:03:45;;;;;;;68.90;62.05;;;32.70;99.90;;;;;;5033657;28;20021;-68
2023/08/26 06:06:11;;;;;;;75.32;68.35;;;32.60;99.90;;;;;;5033561;28;20022;-66
2023/08/26 06:08:38;;;;;;;76.25;68.90;;;32.50;99.90;;;;;;5032926;28;20033;-66
2023/08/26 06:11:04;;;;;;;76.45;69.15;;;32.50;99.90;;;;;;5033056;28;20042;-67
2023/08/26 06:13:31;;;;;;;83.88;76.53;;;32.50;99.90;;;;;;5032956;28;20354;-66
2023/08/26 06:15:58;;;;;;;75.55;68.90;;;32.40;99.90;;;;;;5031628;28;20021;-67
2023/08/26 06:18:25;;;;;;;86.65;79.35;;;32.40;99.90;;;;;;5032953;28;20025;-65
2023/08/26 06:20:52;;;;;;;56.08;50.85;;;32.40;99.90;;;;;;5032703;28;20048;-67
2023/08/26 06:23:20;;;;;;;74.03;67.57;;;32.40;99.90;;;;;;5032782;28;20063;-67
2023/08/26 06:25:55;;;;;;;104.95;95.95;;;32.40;99.90;;;;;;5032129;28;20040;-67
2023/08/26 06:28:24;;;;;;;96.93;88.65;;;32.40;99.90;;;;;;5030591;28;20585;-66
2023/08/26 06:30:50;;;;;;;99.03;90.55;;;32.40;99.90;;;;;;5014122;28;20386;-67
2023/08/26 06:33:17;;;;;;;106.85;97.43;;;32.40;99.90;;;;;;5036331;28;20459;-66
2023/08/26 06:35:49;;;;;;;86.40;77.95;;;32.40;99.90;;;;;;5036550;28;20201;-69
2023/08/26 06:38:15;;;;;;;;;;;32.50;99.90;;;;;;5036755;28;20029;-69
2023/08/26 06:40:42;;;;;;;96.97;88.53;;;32.60;99.90;;;;;;5036431;28;19905;-65
2023/08/26 06:43:08;;;;;;;78.85;71.40;;;32.70;99.90;;;;;;5036272;28;20048;-69
2023/08/26 06:45:35;;;;;;;68.20;61.42;;;32.80;99.90;;;;;;5036440;28;20040;-67
2023/08/26 06:48:02;;;;;;;66.63;60.65;;;32.80;99.90;;;;;;5036386;28;20079;-66
2023/08/26 06:50:29;;;;;;;59.67;53.70;;;32.70;99.90;;;;;;5036011;28;20018;-67
2023/08/26 06:52:56;;;;;;;62.88;56.50;;;32.80;99.90;;;;;;5036078;28;20049;-68
2023/08/26 06:55:22;;;;;;;47.33;41.92;;;33.00;99.90;;;;;;5035734;28;20025;-66
2023/08/26 06:57:49;;;;;;;38.63;33.95;;;33.10;99.90;;;;;;5036041;28;20025;-68
2023/08/26 07:00:16;;;;;;;54.78;49.30;;;33.30;99.90;;;;;;5036411;28;20057;-67
2023/08/26 07:02:42;;;;;;;52.13;46.75;;;33.40;99.90;;;;;;5036061;28;20022;-68
2023/08/26 07:05:09;;;;;;;48.85;43.80;;;33.30;99.90;;;;;;5035896;28;20467;-68
2023/08/26 07:07:36;;;;;;;62.90;56.45;;;33.30;99.90;;;;;;5035739;28;20033;-66
2023/08/26 07:10:05;;;;;;;59.65;53.60;;;33.30;99.90;;;;;;5035921;28;20049;-71
2023/08/26 07:12:32;;;;;;;84.80;76.43;;;33.20;99.90;;;;;;5036056;28;20025;-70
2023/08/26 07:14:58;;;;;;;108.63;97.00;;;33.20;99.90;;;;;;5035846;28;20025;-72
2023/08/26 07:17:25;;;;;;;81.97;73.93;;;33.40;99.90;;;;;;5035672;28;20021;-67
2023/08/26 07:19:51;;;;;;;109.57;95.45;;;33.50;99.90;;;;;;5035677;28;20532;-67
2023/08/26 07:22:18;;;;;;;68.43;61.38;;;33.60;99.90;;;;;;5035110;28;20033;-67
2023/08/26 07:24:45;;;;;;;72.05;64.43;;;33.60;99.90;;;;;;5029209;28;20025;-65
2023/08/26 07:27:12;;;;;;;53.22;47.72;;;33.60;99.90;;;;;;5025547;28;20359;-67
2023/08/26 07:29:38;;;;;;;54.72;45.92;;;33.70;99.90;;;;;;5022144;28;20029;-67
2023/08/26 07:32:06;;;;;;;47.60;42.50;;;33.70;99.90;;;;;;5018996;28;20478;-64
2023/08/26 07:34:32;;;;;;;51.17;44.67;;;33.60;99.90;;;;;;5015520;28;20037;-67
2023/08/26 07:36:59;;;;;;;50.00;44.75;;;33.60;99.90;;;;;;5027122;28;20044;-65
2023/08/26 07:39:25;;;;;;;57.08;51.42;;;33.60;99.90;;;;;;5033889;28;20031;-63
2023/08/26 07:41:52;;;;;;;54.22;48.60;;;33.50;99.90;;;;;;5031778;28;20037;-64
2023/08/26 07:44:19;;;;;;;48.28;43.70;;;33.40;99.90;;;;;;5035110;28;20017;-65
2023/08/26 07:46:45;;;;;;;40.92;35.38;;;33.30;99.90;;;;;;5034802;28;20075;-66
2023/08/26 07:49:12;;;;;;;55.47;46.35;;;33.30;99.90;;;;;;5035157;28;20037;-67
2023/08/26 07:51:38;;;;;;;56.92;42.95;;;33.20;99.90;;;;;;5033018;28;20051;-66
2023/08/26 07:54:06;;;;;;;161.30;119.93;;;33.10;99.90;;;;;;5030992;28;20021;-67
2023/08/26 07:56:34;;;;;;;103.80;68.15;;;33.00;99.90;;;;;;5034965;28;20583;-67
2023/08/26 07:59:00;;;;;;;74.53;56.58;;;32.90;99.90;;;;;;5036226;28;20037;-67
2023/08/26 08:01:27;;;;;;;65.68;50.53;;;32.90;99.90;;;;;;5035948;28;20017;-66
2023/08/26 08:03:53;;;;;;;83.13;70.07;;;32.80;99.90;;;;;;5035200;28;20036;-66
2023/08/26 08:06:20;;;;;;;57.92;51.67;;;32.80;99.90;;;;;;5035159;28;20028;-67
2023/08/26 08:08:46;;;;;;;50.17;44.63;;;32.70;99.90;;;;;;5035235;28;20064;-67
2023/08/26 08:11:13;;;;;;;56.50;42.83;;;32.60;99.90;;;;;;5035002;28;20053;-67
2023/08/26 08:13:39;;;;;;;57.75;47.92;;;32.50;99.90;;;;;;5035069;28;20017;-68
2023/08/26 08:16:06;;;;;;;48.13;38.78;;;32.50;99.90;;;;;;5034547;28;20034;-69
2023/08/26 08:18:32;;;;;;;49.95;43.50;;;32.50;99.90;;;;;;5034684;28;20021;-66
2023/08/26 08:20:59;;;;;;;52.15;45.15;;;32.50;99.90;;;;;;5034393;28;20398;-66
2023/08/26 08:23:26;;;;;;;261.13;182.07;;;32.50;99.90;;;;;;5034600;28;20030;-66
2023/08/26 08:25:52;;;;;;;119.72;91.15;;;32.50;99.90;;;;;;5033459;28;20045;-65
2023/08/26 08:28:19;;;;;;;89.72;67.68;;;32.50;99.90;;;;;;5033325;28;20021;-67
2023/08/26 08:30:45;;;;;;;98.40;78.10;;;32.60;99.90;;;;;;5033732;28;20021;-68
2023/08/26 08:33:12;;;;;;;52.67;39.05;;;32.60;99.90;;;;;;5032428;28;20037;-65
2023/08/26 08:35:39;;;;;;;50.85;36.08;;;32.70;99.90;;;;;;5032623;28;20049;-68
2023/08/26 08:38:05;;;;;;;52.80;40.50;;;32.80;99.90;;;;;;5033135;28;20037;-69
2023/08/26 08:40:32;;;;;;;45.78;33.15;;;32.80;99.90;;;;;;5033447;28;20032;-68
2023/08/26 08:43:02;;;;;;;56.95;37.72;;;32.80;99.90;;;;;;5033339;28;20122;-68
2023/08/26 08:45:29;;;;;;;74.75;51.35;;;32.80;99.90;;;;;;5033496;28;20486;-67
2023/08/26 08:47:56;;;;;;;56.85;38.95;;;32.80;99.90;;;;;;5045163;28;20043;-67
2023/08/26 08:50:23;;;;;;;52.97;41.67;;;32.70;99.90;;;;;;5053758;28;20021;-68
2023/08/26 08:52:55;;;;;;;61.17;47.55;;;32.70;99.90;;;;;;5054156;28;20024;-67
2023/08/26 08:55:22;;;;;;;88.00;61.07;;;32.70;99.90;;;;;;5053338;28;20021;-67
2023/08/26 08:57:52;;;;;;;79.45;53.40;;;32.70;99.90;;;;;;5053520;28;20447;-68
2023/08/26 09:00:19;;;;;;;78.63;52.88;;;32.70;99.90;;;;;;5053772;28;20021;-68
2023/08/26 09:02:47;;;;;;;54.05;39.92;;;32.70;99.90;;;;;;5053749;28;20025;-67
2023/08/26 09:05:14;;;;;;;63.47;43.35;;;32.70;99.90;;;;;;5053451;28;20021;-67
2023/08/26 09:07:41;;;;;;;59.80;42.88;;;32.70;99.90;;;;;;5053660;28;20032;-66
2023/08/26 09:10:11;;;;;;;46.78;37.10;;;32.70;99.90;;;;;;5053484;28;20089;-67
2023/08/26 09:12:38;;;;;;;58.30;38.13;;;32.70;99.90;;;;;;5053317;28;20021;-68
2023/08/26 09:15:06;;;;;;;60.72;39.50;;;32.80;99.90;;;;;;5053640;28;20520;-67
2023/08/26 09:17:33;;;;;;;64.72;40.80;;;32.80;99.90;;;;;;5053419;28;20036;-67
2023/08/26 09:20:05;;;;;;;38.08;30.35;;;32.80;99.90;;;;;;5053153;28;20394;-67
2023/08/26 09:22:32;;;;;;;41.00;29.80;;;32.80;99.90;;;;;;5053296;28;20486;-67
2023/08/26 09:25:00;;;;;;;41.22;32.35;;;32.80;99.90;;;;;;5053382;28;20069;-67
2023/08/26 09:27:27;;;;;;;38.42;30.25;;;32.80;99.90;;;;;;5053501;28;20100;-70
2023/08/26 09:29:54;;;;;;;34.20;29.33;;;32.80;99.90;;;;;;5053330;28;20071;-68
2023/08/26 09:32:34;;;;;;;45.55;31.38;;;32.80;99.90;;;;;;5053260;28;20028;-72
2023/08/26 09:35:14;;;;;;;37.50;31.85;;;32.80;99.90;;;;;;5053168;28;20433;-72
2023/08/26 09:37:42;;;;;;;40.97;32.40;;;32.70;99.90;;;;;;5039938;28;20099;-69
2023/08/26 09:40:18;;;;;;;80.13;53.53;;;32.70;99.90;;;;;;5033251;28;20100;-72
2023/08/26 09:42:45;;;;;;;82.75;60.72;;;32.60;99.90;;;;;;5033194;28;20079;-68
2023/08/26 09:45:14;;;;;;;87.53;57.75;;;32.50;99.90;;;;;;5033033;28;20053;-68
2023/08/26 09:47:41;;;;;;;96.57;68.90;;;32.50;99.90;;;;;;5033239;28;20429;-68
2023/08/26 09:50:08;;;;;;;97.90;76.65;;;32.50;99.90;;;;;;5032830;28;20017;-68
2023/08/26 09:52:50;;;;;;;110.22;81.32;;;32.30;99.90;;;;;;5032988;28;20032;-68
2023/08/26 09:55:16;;;;;;;128.90;92.03;;;32.30;99.90;;;;;;5032989;28;20059;-68
2023/08/26 09:57:43;;;;;;;101.70;73.65;;;32.20;99.90;;;;;;5032916;28;20501;-68
2023/08/26 10:00:11;;;;;;;92.60;72.03;;;32.20;99.90;;;;;;5032731;28;20045;-66
2023/08/26 10:02:50;;;;;;;78.10;57.17;;;32.10;99.90;;;;;;5032998;28;20080;-68
2023/08/26 10:05:20;;;;;;;87.90;64.65;;;32.00;99.90;;;;;;5032833;28;20057;-68
2023/08/26 10:07:51;;;;;;;72.22;54.67;;;32.00;99.90;;;;;;5035941;28;20378;-68
2023/08/26 10:10:22;;;;;;;71.43;48.92;;;31.90;99.90;;;;;;5035977;28;20087;-67
2023/08/26 10:12:52;;;;;;;62.50;46.50;;;31.90;99.90;;;;;;5036936;28;20028;-68
2023/08/26 10:15:21;;;;;;;60.03;43.38;;;31.80;99.90;;;;;;5036826;28;20108;-69
2023/08/26 10:20:39;;;;;;;69.30;55.38;;;31.80;99.90;;;;;;5028675;28;20041;-65
2023/08/26 10:23:06;;;;;;;69.00;53.25;;;31.80;99.90;;;;;;5016894;28;20025;-66
2023/08/26 10:25:33;;;;;;;68.30;56.17;;;31.80;99.90;;;;;;5031878;28;20026;-66
2023/08/26 10:28:03;;;;;;;60.17;44.08;;;31.70;99.90;;;;;;5035944;28;20018;-66
2023/08/26 10:30:31;;;;;;;142.13;128.00;;;31.70;99.90;;;;;;5036385;28;20041;-66
2023/08/26 10:33:01;;;;;;;137.52;124.20;;;31.70;99.90;;;;;;5031270;28;20014;-64
2023/08/26 10:35:30;;;;;;;133.60;120.95;;;31.70;99.90;;;;;;5034136;28;20030;-65
2023/08/26 10:38:17;;;;;;;132.07;119.63;;;31.70;99.90;;;;;;5035040;28;20125;-66
2023/08/26 10:40:44;;;;;;;117.22;106.18;;;31.70;99.90;;;;;;5035672;28;20510;-66
2023/08/26 10:43:14;;;;;;;141.30;127.47;;;31.60;99.90;;;;;;5034999;28;20425;-68
2023/08/26 10:45:51;;;;;;;143.18;128.00;;;31.60;99.90;;;;;;5026603;28;20033;-69
2023/08/26 10:48:18;;;;;;;162.98;145.65;;;31.60;99.90;;;;;;5022022;28;20097;-69
2023/08/26 10:50:59;;;;;;;173.57;155.43;;;31.50;99.90;;;;;;5028477;28;20022;-70
2023/08/26 10:53:26;;;;;;;161.85;139.05;;;31.50;99.90;;;;;;5027923;28;20037;-73
2023/08/26 10:55:54;;;;;;;315.52;220.05;;;31.50;99.90;;;;;;5027107;28;20032;-70
2023/08/26 10:58:43;;;;;;;207.55;157.18;;;31.50;99.90;;;;;;5028687;28;20037;-79
2023/08/26 11:01:12;;;;;;;166.57;134.02;;;31.50;99.90;;;;;;5006407;28;20544;-72
2023/08/26 11:03:39;;;;;;;147.88;123.85;;;31.50;99.90;;;;;;5026759;28;20037;-71
2023/08/26 11:06:08;;;;;;;161.90;142.00;;;31.40;99.90;;;;;;5026339;28;20029;-70
2023/08/26 11:08:38;;;;;;;143.93;117.80;;;31.30;99.90;;;;;;5026597;28;20017;-70
2023/08/26 11:11:10;;;;;;;151.40;117.95;;;31.30;99.90;;;;;;5028000;28;20037;-71
2023/08/26 11:13:36;;;;;;;;;;;31.30;99.90;;;;;;5024393;28;20033;-70
2023/08/26 11:16:03;;;;;;;161.20;131.40;;;31.20;99.90;;;;;;5027016;28;20293;-70
2023/08/26 11:18:30;;;;;;;147.07;117.38;;;31.20;99.90;;;;;;5032163;28;20033;-73
2023/08/26 11:21:04;;;;;;;129.75;112.10;;;31.20;99.90;;;;;;5025174;28;20125;-70
2023/08/26 11:23:32;;;;;;;117.15;103.00;;;31.20;99.90;;;;;;5016058;28;20100;-71
2023/08/26 11:25:59;;;;;;;154.93;138.93;;;31.20;99.90;;;;;;5017016;28;20060;-67
2023/08/26 11:28:27;;;;;;;138.95;121.55;;;31.10;99.90;;;;;;5025859;28;20021;-68
2023/08/26 11:30:57;;;;;;;180.98;162.05;;;31.10;99.90;;;;;;5025712;28;20041;-74
2023/08/26 11:33:26;;;;;;;177.70;145.88;;;31.00;99.90;;;;;;5023634;28;20466;-70
2023/08/26 11:35:53;;;;;;;165.07;141.85;;;31.00;99.90;;;;;;5015353;28;20064;-70
2023/08/26 11:38:20;;;;;;;177.35;156.15;;;31.00;99.90;;;;;;5019887;28;20037;-71
2023/08/26 11:40:47;;;;;;;138.70;123.85;;;31.00;99.90;;;;;;5024493;28;20497;-70
2023/08/26 11:43:16;;;;;;;140.15;113.72;;;31.00;99.90;;;;;;5025982;28;20278;-69
2023/08/26 11:45:45;;;;;;;138.63;115.45;;;31.00;99.90;;;;;;5024073;28;20062;-73
2023/08/26 11:48:12;;;;;;;129.50;116.43;;;31.00;99.90;;;;;;5025040;28;20417;-70
2023/08/26 11:50:41;;;;;;;98.00;87.78;;;31.00;99.90;;;;;;5025474;28;20014;-70
2023/08/26 11:53:08;;;;;;;110.30;99.53;;;30.90;99.90;;;;;;5023972;28;20010;-69
2023/08/26 11:55:36;;;;;;;100.30;90.05;;;30.80;99.90;;;;;;5025069;28;20048;-73
2023/08/26 11:58:04;;;;;;;106.80;95.68;;;30.80;99.90;;;;;;5025990;28;20104;-69
2023/08/26 12:00:33;;;;;;;127.13;113.97;;;30.80;99.90;;;;;;5024592;28;20479;-70
2023/08/26 12:03:06;;;;;;;152.50;137.10;;;30.80;99.90;;;;;;5023927;28;20033;-71
2023/08/26 12:05:43;;;;;;;135.93;121.82;;;30.80;99.90;;;;;;5029145;28;20026;-70
2023/08/26 12:08:20;;;;;;;138.05;124.45;;;30.80;99.90;;;;;;5026564;28;20018;-74
2023/08/26 12:10:48;;;;;;;139.80;126.28;;;30.80;99.90;;;;;;5024695;28;20460;-74
2023/08/26 12:13:15;;;;;;;150.77;136.60;;;30.80;99.90;;;;;;5024511;28;20030;-70
2023/08/26 12:15:42;;;;;;;111.97;100.95;;;30.80;99.90;;;;;;5024860;28;20071;-75
2023/08/26 12:18:09;;;;;;;155.45;139.82;;;30.80;99.90;;;;;;5030386;28;20017;-74
2023/08/26 12:20:37;;;;;;;181.02;161.52;;;30.70;99.90;;;;;;5028718;28;20022;-67
2023/08/26 12:23:05;;;;;;;138.38;125.38;;;30.70;99.90;;;;;;5030464;28;20040;-70
2023/08/26 12:25:39;;;;;;;155.68;139.80;;;30.70;99.90;;;;;;5034789;28;20029;-67
2023/08/26 12:28:13;;;;;;;187.50;168.82;;;30.70;99.90;;;;;;5034616;28;20032;-68
2023/08/26 12:30:42;;;;;;;237.43;211.65;;;30.70;99.90;;;;;;5033904;28;20022;-72
2023/08/26 12:33:10;;;;;;;142.25;128.77;;;30.70;99.90;;;;;;5034432;28;20029;-73
2023/08/26 12:35:37;;;;;;;143.88;129.77;;;30.50;99.90;;;;;;5034255;28;20018;-69
2023/08/26 12:38:05;;;;;;;141.70;128.63;;;30.50;99.90;;;;;;5033754;28;20021;-70
2023/08/26 12:40:33;;;;;;;138.75;126.00;;;30.50;99.90;;;;;;5034515;28;20021;-71
2023/08/26 12:43:02;;;;;;;132.50;120.82;;;30.40;99.90;;;;;;5034669;28;20025;-72
2023/08/26 12:45:31;;;;;;;134.32;122.47;;;30.40;99.90;;;;;;5034025;28;20029;-71